25°C Temp
20°C Dewpoint
74% Humidity
Temperature
8 KM/H
5 MPH
4 KTS
270°
Due West

Wind Speed
Clear
Conditions
Pressure 1012.92 (hPa) - 29.91 (in)
Visibility 6.2 (mi) - 10.0 (km)

Current Conditions
LIMJ
Location 9(km)
Metar :LIMJ 051920Z 27004KT CAVOK 25/20 Q1013
Sun 5th July 21:20 pm

Airport
  Metar Aviation API Data Provided by https://www.checkwx.com/ PHP scripts by weather34.com ©2020